Oracle, Arizona
Current Conditions -  °F | °C
As of 2:55 AM on Friday 28 Nov 2014 (Local Time) from KAVQ Reporting Station
Clear Clear  
Wind Chill: 58°   Ceiling: Unl
Heat Index: 58°   Visibility: 10mi
Dew Point: 20°   Wind: 9mph
Humidity: 23%   Direction: 90°E
Pressure: 30.09"   Gusts: NA
Location:  32.61°N, 110.77°W
Report Text: KAVQ 280955Z AUTO 09008KT 10SM CLR 14/M06 A3009 RMK AO2 T01441065
Loading
Personal Weather Stations






























Interactive Weather Map New forecast layout! Learn more

10-Day Weather Forecast

Advertisements
Track Severe Weather on mobile